Time,TemperatureF,DewpointF,PressureIn,WindDirection,WindDirectionDegrees,WindSpeedMPH,WindSpeedGustMPH,Humidity,HourlyPrecipIn,Conditions,Clouds,dailyrainin,SoftwareType,DateUTC
2013-03-27 00:00:00,44.4,21.6,28.66,East,90,12.0,16.0,40,0.00,,,0.00,meteohub,2013-03-27 05:00:00,
2013-03-27 00:05:00,44.4,21.6,28.66,East,90,14.0,16.0,40,0.00,,,0.00,meteohub,2013-03-27 05:05:00,
2013-03-27 00:10:00,44.1,21.9,28.66,SE,135,9.0,16.0,41,0.00,,,0.00,meteohub,2013-03-27 05:10:00,
2013-03-27 00:15:00,44.4,22.1,28.66,East,90,13.0,16.0,41,0.00,,,0.00,meteohub,2013-03-27 05:15:00,
2013-03-27 00:21:00,44.2,22.1,28.66,East,90,16.0,20.0,41,0.00,,,0.00,meteohub,2013-03-27 05:21:00,
2013-03-27 00:26:00,44.4,22.8,28.66,East,90,14.0,20.0,42,0.00,,,0.00,meteohub,2013-03-27 05:26:00,
2013-03-27 00:31:00,44.4,22.8,28.66,East,90,15.0,20.0,42,0.00,,,0.00,meteohub,2013-03-27 05:31:00,
2013-03-27 00:36:00,44.2,22.6,28.66,East,90,13.0,17.0,42,0.00,,,0.00,meteohub,2013-03-27 05:36:00,
2013-03-27 00:41:00,44.4,22.8,28.66,SE,135,12.0,20.0,42,0.00,,,0.00,meteohub,2013-03-27 05:41:00,
2013-03-27 00:46:00,44.2,23.2,28.66,SE,135,13.0,20.0,43,0.00,,,0.00,meteohub,2013-03-27 05:46:00,
2013-03-27 00:51:00,44.2,23.2,28.66,SE,135,11.0,20.0,43,0.00,,,0.00,meteohub,2013-03-27 05:51:00,
2013-03-27 00:56:00,44.4,23.4,28.66,East,90,15.0,17.0,43,0.00,,,0.00,meteohub,2013-03-27 05:56:00,
2013-03-27 01:01:00,44.6,23.5,28.65,SE,135,15.0,17.0,43,0.00,,,0.00,meteohub,2013-03-27 06:01:00,
2013-03-27 01:07:00,44.2,23.7,28.66,SE,135,14.0,17.0,44,0.00,,,0.00,meteohub,2013-03-27 06:07:00,
2013-03-27 01:12:00,44.1,23.5,28.66,SE,135,10.0,17.0,44,0.00,,,0.00,meteohub,2013-03-27 06:12:00,
2013-03-27 01:17:00,44.1,23.5,28.65,East,90,15.0,17.0,44,0.00,,,0.00,meteohub,2013-03-27 06:17:00,
2013-03-27 01:22:00,44.2,24.3,28.65,SE,135,11.0,19.0,45,0.00,,,0.00,meteohub,2013-03-27 06:22:00,
2013-03-27 01:27:00,44.2,24.3,28.65,East,90,12.0,19.0,45,0.00,,,0.00,meteohub,2013-03-27 06:27:00,
2013-03-27 01:32:00,44.1,24.1,28.65,East,90,16.0,16.0,45,0.00,,,0.00,meteohub,2013-03-27 06:32:00,
2013-03-27 01:37:00,43.9,23.9,28.65,East,90,12.0,16.0,45,0.00,,,0.00,meteohub,2013-03-27 06:37:00,
2013-03-27 01:42:00,43.7,24.3,28.65,East,90,11.0,16.0,46,0.00,,,0.00,meteohub,2013-03-27 06:42:00,
2013-03-27 01:47:00,43.5,24.1,28.65,East,90,12.0,16.0,46,0.00,,,0.00,meteohub,2013-03-27 06:47:00,
2013-03-27 01:52:00,43.3,24.4,28.65,East,90,11.0,15.0,47,0.00,,,0.00,meteohub,2013-03-27 06:52:00,
2013-03-27 01:57:00,43.2,24.3,28.65,East,90,11.0,15.0,47,0.00,,,0.00,meteohub,2013-03-27 06:57:00,
2013-03-27 02:02:00,43.2,24.3,28.64,East,90,11.0,14.0,47,0.00,,,0.00,meteohub,2013-03-27 07:02:00,
2013-03-27 02:07:00,42.8,23.9,28.64,East,90,11.0,15.0,47,0.00,,,0.00,meteohub,2013-03-27 07:07:00,
2013-03-27 02:12:00,43.0,24.1,28.64,East,90,11.0,15.0,47,0.00,,,0.00,meteohub,2013-03-27 07:12:00,
2013-03-27 02:17:00,43.0,24.6,28.64,SSE,158,13.0,13.0,48,0.00,,,0.00,meteohub,2013-03-27 07:17:00,
2013-03-27 02:22:00,42.8,24.4,28.64,East,90,11.0,13.0,48,0.00,,,0.00,meteohub,2013-03-27 07:22:00,
2013-03-27 02:27:00,42.6,24.3,28.64,SSE,158,12.0,14.0,48,0.00,,,0.00,meteohub,2013-03-27 07:27:00,
2013-03-27 02:32:00,42.6,24.8,28.64,South,180,12.0,15.0,49,0.00,,,0.00,meteohub,2013-03-27 07:32:00,
2013-03-27 02:37:00,42.4,24.6,28.63,South,180,13.0,15.0,49,0.00,,,0.00,meteohub,2013-03-27 07:37:00,
2013-03-27 02:42:00,42.3,24.4,28.63,East,90,12.0,15.0,49,0.00,,,0.00,meteohub,2013-03-27 07:42:00,
2013-03-27 02:47:00,42.4,24.6,28.63,East,90,13.0,15.0,49,0.00,,,0.00,meteohub,2013-03-27 07:47:00,
2013-03-27 02:52:00,42.3,25.0,28.63,East,90,9.0,16.0,50,0.00,,,0.00,meteohub,2013-03-27 07:52:00,
2013-03-27 02:57:00,42.1,24.8,28.63,East,90,9.0,16.0,50,0.00,,,0.00,meteohub,2013-03-27 07:57:00,
2013-03-27 03:02:00,41.9,24.6,28.63,ESE,113,11.0,16.0,50,0.00,,,0.00,meteohub,2013-03-27 08:02:00,
2013-03-27 03:07:00,41.7,24.4,28.63,SE,135,8.0,15.0,50,0.00,,,0.00,meteohub,2013-03-27 08:07:00,
2013-03-27 03:12:00,41.7,24.4,28.63,East,90,11.0,13.0,50,0.00,,,0.00,meteohub,2013-03-27 08:12:00,
2013-03-27 03:18:00,41.4,24.6,28.63,SE,135,9.0,13.0,51,0.00,,,0.00,meteohub,2013-03-27 08:18:00,
2013-03-27 03:23:00,41.4,24.6,28.63,East,90,10.0,13.0,51,0.00,,,0.00,meteohub,2013-03-27 08:23:00,
2013-03-27 03:28:00,41.0,24.8,28.63,ESE,113,8.0,11.0,52,0.00,,,0.00,meteohub,2013-03-27 08:28:00,
2013-03-27 03:33:00,41.0,24.8,28.63,East,90,8.0,11.0,52,0.00,,,0.00,meteohub,2013-03-27 08:33:00,
2013-03-27 03:38:00,41.0,24.8,28.63,East,90,7.0,11.0,52,0.00,,,0.00,meteohub,2013-03-27 08:38:00,
2013-03-27 03:43:00,40.6,24.8,28.63,East,90,8.0,11.0,53,0.00,,,0.00,meteohub,2013-03-27 08:43:00,
2013-03-27 03:48:00,41.0,25.2,28.62,ESE,113,9.0,11.0,53,0.00,,,0.00,meteohub,2013-03-27 08:48:00,
2013-03-27 03:53:00,40.5,24.6,28.62,SE,135,11.0,11.0,53,0.00,,,0.00,meteohub,2013-03-27 08:53:00,
2013-03-27 03:58:00,40.8,25.0,28.62,East,90,9.0,11.0,53,0.00,,,0.00,meteohub,2013-03-27 08:58:00,
2013-03-27 04:03:00,40.6,24.8,28.62,East,90,10.0,14.0,53,0.00,,,0.00,meteohub,2013-03-27 09:03:00,
2013-03-27 04:08:00,40.8,25.0,28.62,East,90,9.0,14.0,53,0.00,,,0.00,meteohub,2013-03-27 09:08:00,
2013-03-27 04:13:00,40.8,25.0,28.62,SE,135,9.0,14.0,53,0.00,,,0.00,meteohub,2013-03-27 09:13:00,
2013-03-27 04:18:00,40.8,25.0,28.61,East,90,8.0,13.0,53,0.00,,,0.00,meteohub,2013-03-27 09:18:00,
2013-03-27 04:23:00,41.0,25.2,28.61,East,90,10.0,13.0,53,0.00,,,0.00,meteohub,2013-03-27 09:23:00,
2013-03-27 04:28:00,41.0,25.2,28.61,SE,135,14.0,14.0,53,0.00,,,0.00,meteohub,2013-03-27 09:28:00,
2013-03-27 04:33:00,41.0,25.2,28.62,East,90,11.0,13.0,53,0.00,,,0.00,meteohub,2013-03-27 09:33:00,
2013-03-27 04:38:00,41.2,25.3,28.62,East,90,13.0,14.0,53,0.00,,,0.00,meteohub,2013-03-27 09:38:00,
2013-03-27 04:43:00,41.0,25.2,28.61,East,90,11.0,15.0,53,0.00,,,0.00,meteohub,2013-03-27 09:43:00,
2013-03-27 04:48:00,41.2,25.3,28.61,SE,135,10.0,15.0,53,0.00,,,0.00,meteohub,2013-03-27 09:48:00,
2013-03-27 04:53:00,41.0,25.2,28.61,East,90,9.0,15.0,53,0.00,,,0.00,meteohub,2013-03-27 09:53:00,
2013-03-27 04:58:00,41.0,25.7,28.61,ESE,113,14.0,14.0,54,0.00,,,0.00,meteohub,2013-03-27 09:58:00,
2013-03-27 05:03:00,40.8,25.5,28.61,SE,135,11.0,15.0,54,0.00,,,0.00,meteohub,2013-03-27 10:03:00,
2013-03-27 05:08:00,41.0,25.7,28.61,East,90,11.0,15.0,54,0.00,,,0.00,meteohub,2013-03-27 10:08:00,
2013-03-27 05:13:00,41.0,25.7,28.60,East,90,11.0,15.0,54,0.00,,,0.00,meteohub,2013-03-27 10:13:00,
2013-03-27 05:18:00,41.0,25.7,28.60,East,90,12.0,14.0,54,0.00,,,0.00,meteohub,2013-03-27 10:18:00,
2013-03-27 05:23:00,41.2,25.9,28.60,East,90,13.0,15.0,54,0.00,,,0.00,meteohub,2013-03-27 10:23:00,
2013-03-27 05:28:00,41.0,25.7,28.61,SE,135,11.0,15.0,54,0.00,,,0.00,meteohub,2013-03-27 10:28:00,
2013-03-27 05:33:00,40.6,25.3,28.60,SE,135,11.0,15.0,54,0.00,,,0.00,meteohub,2013-03-27 10:33:00,
2013-03-27 05:38:00,41.0,25.7,28.61,SE,135,11.0,15.0,54,0.00,,,0.00,meteohub,2013-03-27 10:38:00,
2013-03-27 05:43:00,40.8,25.5,28.61,SE,135,10.0,15.0,54,0.00,,,0.00,meteohub,2013-03-27 10:43:00,
2013-03-27 05:48:00,41.0,25.7,28.60,East,90,8.0,16.0,54,0.00,,,0.00,meteohub,2013-03-27 10:48:00,
2013-03-27 05:53:00,41.0,25.7,28.60,SE,135,11.0,16.0,54,0.00,,,0.00,meteohub,2013-03-27 10:53:00,
2013-03-27 05:58:00,41.0,25.7,28.61,East,90,11.0,15.0,54,0.00,,,0.00,meteohub,2013-03-27 10:58:00,
2013-03-27 06:03:00,41.2,25.9,28.61,East,90,11.0,15.0,54,0.00,,,0.00,meteohub,2013-03-27 11:03:00,
2013-03-27 06:08:00,40.8,25.5,28.61,East,90,11.0,14.0,54,0.00,,,0.00,meteohub,2013-03-27 11:08:00,
2013-03-27 06:13:00,40.8,25.5,28.60,NE,45,11.0,14.0,54,0.00,,,0.00,meteohub,2013-03-27 11:13:00,
2013-03-27 06:18:00,40.8,25.5,28.60,East,90,10.0,15.0,54,0.00,,,0.00,meteohub,2013-03-27 11:18:00,
2013-03-27 06:23:00,41.2,25.9,28.60,East,90,12.0,15.0,54,0.00,,,0.00,meteohub,2013-03-27 11:23:00,
2013-03-27 06:28:00,41.0,25.7,28.59,SSE,158,15.0,15.0,54,0.00,,,0.00,meteohub,2013-03-27 11:28:00,
2013-03-27 06:33:00,40.8,25.5,28.59,SE,135,10.0,16.0,54,0.00,,,0.00,meteohub,2013-03-27 11:33:00,
2013-03-27 06:38:00,40.6,25.7,28.60,East,90,11.0,16.0,55,0.00,,,0.00,meteohub,2013-03-27 11:38:00,
2013-03-27 06:43:00,40.6,25.7,28.61,SE,135,10.0,16.0,55,0.00,,,0.00,meteohub,2013-03-27 11:43:00,
2013-03-27 06:48:00,40.3,25.9,28.60,SE,135,10.0,16.0,56,0.00,,,0.00,meteohub,2013-03-27 11:48:00,
2013-03-27 06:53:00,40.3,25.9,28.60,East,90,12.0,16.0,56,0.00,,,0.00,meteohub,2013-03-27 11:53:00,
2013-03-27 06:58:00,40.3,25.9,28.61,East,90,14.0,14.0,56,0.00,,,0.00,meteohub,2013-03-27 11:58:00,
2013-03-27 07:04:00,40.3,25.3,28.61,SW,225,13.0,15.0,55,0.00,,,0.00,meteohub,2013-03-27 12:04:00,
2013-03-27 07:09:00,40.5,25.5,28.61,SE,135,9.0,15.0,55,0.00,,,0.00,meteohub,2013-03-27 12:09:00,
2013-03-27 07:14:00,40.6,25.7,28.61,SE,135,11.0,15.0,55,0.00,,,0.00,meteohub,2013-03-27 12:14:00,
2013-03-27 07:19:00,40.5,25.5,28.61,NE,45,12.0,15.0,55,0.00,,,0.00,meteohub,2013-03-27 12:19:00,
2013-03-27 07:24:00,40.3,25.3,28.61,East,90,11.0,15.0,55,0.00,,,0.00,meteohub,2013-03-27 12:24:00,
2013-03-27 07:29:00,40.1,25.2,28.61,East,90,12.0,15.0,55,0.00,,,0.00,meteohub,2013-03-27 12:29:00,
2013-03-27 07:34:00,40.5,25.5,28.61,East,90,10.0,15.0,55,0.00,,,0.00,meteohub,2013-03-27 12:34:00,
2013-03-27 07:39:00,40.5,25.5,28.61,SE,135,10.0,15.0,55,0.00,,,0.00,meteohub,2013-03-27 12:39:00,
2013-03-27 07:44:00,40.6,25.7,28.61,East,90,9.0,16.0,55,0.00,,,0.00,meteohub,2013-03-27 12:44:00,
2013-03-27 07:49:00,40.5,25.5,28.62,SE,135,11.0,16.0,55,0.00,,,0.00,meteohub,2013-03-27 12:49:00,
2013-03-27 07:54:00,40.5,25.5,28.61,East,90,11.0,16.0,55,0.00,,,0.00,meteohub,2013-03-27 12:54:00,
2013-03-27 07:59:00,40.5,25.5,28.61,East,90,13.0,15.0,55,0.00,,,0.00,meteohub,2013-03-27 12:59:00,
2013-03-27 08:04:00,40.6,25.7,28.61,East,90,15.0,17.0,55,0.00,,,0.00,meteohub,2013-03-27 13:04:00,
2013-03-27 08:09:00,40.5,25.5,28.61,SE,135,8.0,17.0,55,0.00,,,0.00,meteohub,2013-03-27 13:09:00,
2013-03-27 08:14:00,40.6,26.2,28.61,East,90,10.0,17.0,56,0.00,,,0.00,meteohub,2013-03-27 13:14:00,
2013-03-27 08:19:00,41.0,26.1,28.62,East,90,9.0,15.0,55,0.00,,,0.00,meteohub,2013-03-27 13:19:00,
2013-03-27 08:24:00,41.2,26.2,28.62,SE,135,8.0,15.0,55,0.00,,,0.00,meteohub,2013-03-27 13:24:00,
2013-03-27 08:29:00,41.2,26.6,28.63,East,90,13.0,15.0,56,0.00,,,0.00,meteohub,2013-03-27 13:29:00,
2013-03-27 08:34:00,41.5,26.1,28.62,East,90,9.0,15.0,54,0.00,,,0.00,meteohub,2013-03-27 13:34:00,
2013-03-27 08:39:00,42.1,26.6,28.62,East,90,13.0,15.0,54,0.00,,,0.00,meteohub,2013-03-27 13:39:00,
2013-03-27 08:44:00,42.1,26.6,28.62,SSE,158,10.0,15.0,54,0.00,,,0.00,meteohub,2013-03-27 13:44:00,
2013-03-27 08:49:00,42.6,26.6,28.62,ENE,68,10.0,15.0,53,0.00,,,0.00,meteohub,2013-03-27 13:49:00,
2013-03-27 08:54:00,43.0,27.0,28.62,SE,135,11.0,17.0,53,0.00,,,0.00,meteohub,2013-03-27 13:54:00,
2013-03-27 08:59:00,43.5,27.1,28.62,SE,135,13.0,17.0,52,0.00,,,0.00,meteohub,2013-03-27 13:59:00,
2013-03-27 09:04:00,44.2,27.3,28.63,East,90,13.0,15.0,51,0.00,,,0.00,meteohub,2013-03-27 14:04:00,
2013-03-27 09:09:00,44.4,27.0,28.63,SE,135,11.0,15.0,50,0.00,,,0.00,meteohub,2013-03-27 14:09:00,
2013-03-27 09:14:00,44.2,26.8,28.63,East,90,11.0,14.0,50,0.00,,,0.00,meteohub,2013-03-27 14:14:00,
2013-03-27 09:19:00,44.6,27.1,28.62,East,90,8.0,15.0,50,0.00,,,0.00,meteohub,2013-03-27 14:19:00,
2013-03-27 09:24:00,44.6,26.6,28.62,SE,135,15.0,15.0,49,0.00,,,0.00,meteohub,2013-03-27 14:24:00,
2013-03-27 09:29:00,45.1,27.1,28.63,SE,135,14.0,15.0,49,0.00,,,0.00,meteohub,2013-03-27 14:29:00,
2013-03-27 09:34:00,45.7,27.1,28.63,SE,135,13.0,15.0,48,0.00,,,0.00,meteohub,2013-03-27 14:34:00,
2013-03-27 09:39:00,45.9,26.8,28.62,East,90,11.0,15.0,47,0.00,,,0.00,meteohub,2013-03-27 14:39:00,
2013-03-27 09:44:00,46.2,26.6,28.62,SE,135,11.0,16.0,46,0.00,,,0.00,meteohub,2013-03-27 14:44:00,
2013-03-27 09:49:00,46.8,27.1,28.62,ESE,113,9.0,16.0,46,0.00,,,0.00,meteohub,2013-03-27 14:49:00,
2013-03-27 09:54:00,47.1,26.8,28.61,East,90,9.0,16.0,45,0.00,,,0.00,meteohub,2013-03-27 14:54:00,
2013-03-27 09:59:00,47.1,26.8,28.61,East,90,9.0,14.0,45,0.00,,,0.00,meteohub,2013-03-27 14:59:00,
2013-03-27 10:04:00,48.2,26.8,28.61,SE,135,9.0,16.0,43,0.00,,,0.00,meteohub,2013-03-27 15:04:00,
2013-03-27 10:09:00,48.7,26.6,28.61,South,180,12.0,17.0,42,0.00,,,0.00,meteohub,2013-03-27 15:09:00,
2013-03-27 10:14:00,49.6,27.5,28.61,SE,135,9.0,17.0,42,0.00,,,0.00,meteohub,2013-03-27 15:14:00,
2013-03-27 10:20:00,50.5,27.7,28.60,SE,135,11.0,17.0,41,0.00,,,0.00,meteohub,2013-03-27 15:20:00,
2013-03-27 10:25:00,51.1,27.0,28.61,South,180,9.0,16.0,39,0.00,,,0.00,meteohub,2013-03-27 15:25:00,
2013-03-27 10:30:00,52.2,27.3,28.60,SW,225,10.0,15.0,38,0.00,,,0.00,meteohub,2013-03-27 15:30:00,
2013-03-27 10:35:00,52.2,27.3,28.60,East,90,9.0,15.0,38,0.00,,,0.00,meteohub,2013-03-27 15:35:00,
2013-03-27 10:40:00,52.3,26.8,28.60,SSE,158,15.0,15.0,37,0.00,,,0.00,meteohub,2013-03-27 15:40:00,
2013-03-27 10:45:00,53.6,28.0,28.60,East,90,9.0,21.0,37,0.00,,,0.00,meteohub,2013-03-27 15:45:00,
2013-03-27 10:50:00,55.2,28.8,28.60,SE,135,11.0,21.0,36,0.00,,,0.00,meteohub,2013-03-27 15:50:00,
2013-03-27 10:55:00,56.5,28.4,28.60,SW,225,17.0,21.0,34,0.00,,,0.00,meteohub,2013-03-27 15:55:00,
2013-03-27 11:00:00,56.5,28.4,28.60,South,180,15.0,18.0,34,0.00,,,0.00,meteohub,2013-03-27 16:00:00,
2013-03-27 11:05:00,56.1,27.3,28.60,South,180,19.0,22.0,33,0.00,,,0.00,meteohub,2013-03-27 16:05:00,
2013-03-27 11:10:00,55.9,28.0,28.59,South,180,15.0,22.0,34,0.00,,,0.00,meteohub,2013-03-27 16:10:00,
2013-03-27 11:15:00,56.8,28.8,28.60,South,180,21.0,22.0,34,0.00,,,0.00,meteohub,2013-03-27 16:15:00,
2013-03-27 11:20:00,57.6,28.6,28.60,South,180,14.0,22.0,33,0.00,,,0.00,meteohub,2013-03-27 16:20:00,
2013-03-27 11:25:00,58.5,28.8,28.60,SE,135,16.0,22.0,32,0.00,,,0.00,meteohub,2013-03-27 16:25:00,
2013-03-27 11:30:00,58.5,28.8,28.61,SE,135,19.0,22.0,32,0.00,,,0.00,meteohub,2013-03-27 16:30:00,
2013-03-27 11:35:00,58.3,28.6,28.60,SE,135,16.0,23.0,32,0.00,,,0.00,meteohub,2013-03-27 16:35:00,
2013-03-27 11:40:00,58.8,28.9,28.60,SE,135,13.0,23.0,32,0.00,,,0.00,meteohub,2013-03-27 16:40:00,
2013-03-27 11:45:00,59.2,28.6,28.60,South,180,19.0,23.0,31,0.00,,,0.00,meteohub,2013-03-27 16:45:00,
2013-03-27 11:50:00,59.9,29.1,28.60,South,180,15.0,21.0,31,0.00,,,0.00,meteohub,2013-03-27 16:50:00,
2013-03-27 11:55:00,59.9,28.4,28.61,SE,135,17.0,21.0,30,0.00,,,0.00,meteohub,2013-03-27 16:55:00,
2013-03-27 12:00:00,59.4,28.8,28.60,South,180,15.0,21.0,31,0.00,,,0.00,meteohub,2013-03-27 17:00:00,
2013-03-27 12:05:00,59.2,29.3,28.60,SW,225,15.0,23.0,32,0.00,,,0.00,meteohub,2013-03-27 17:05:00,
2013-03-27 12:10:00,60.1,28.6,28.60,SE,135,18.0,23.0,30,0.00,,,0.00,meteohub,2013-03-27 17:10:00,
2013-03-27 12:15:00,60.1,28.6,28.61,SW,225,19.0,23.0,30,0.00,,,0.00,meteohub,2013-03-27 17:15:00,
2013-03-27 12:20:00,60.3,28.8,28.60,South,180,12.0,24.0,30,0.00,,,0.00,meteohub,2013-03-27 17:20:00,
2013-03-27 12:25:00,60.6,29.8,28.59,South,180,11.0,24.0,31,0.00,,,0.00,meteohub,2013-03-27 17:25:00,
2013-03-27 12:30:00,61.3,28.8,28.59,SE,135,14.0,24.0,29,0.00,,,0.00,meteohub,2013-03-27 17:30:00,
2013-03-27 12:35:00,62.1,28.6,28.59,East,90,14.0,21.0,28,0.00,,,0.00,meteohub,2013-03-27 17:35:00,
2013-03-27 12:40:00,62.2,28.8,28.58,SW,225,14.0,16.0,28,0.00,,,0.00,meteohub,2013-03-27 17:40:00,
2013-03-27 12:45:00,62.4,28.9,28.58,South,180,14.0,21.0,28,0.00,,,0.00,meteohub,2013-03-27 17:45:00,
2013-03-27 12:50:00,63.0,30.2,28.58,South,180,14.0,21.0,29,0.00,,,0.00,meteohub,2013-03-27 17:50:00,
2013-03-27 12:55:00,63.9,29.3,28.57,East,90,13.0,21.0,27,0.00,,,0.00,meteohub,2013-03-27 17:55:00,
2013-03-27 13:00:00,63.7,28.2,28.57,South,180,22.0,24.0,26,0.00,,,0.00,meteohub,2013-03-27 18:00:00,
2013-03-27 13:05:00,64.0,29.3,28.56,SSE,158,15.0,24.0,27,0.00,,,0.00,meteohub,2013-03-27 18:05:00,
2013-03-27 13:10:00,64.2,29.5,28.56,South,180,23.0,24.0,27,0.00,,,0.00,meteohub,2013-03-27 18:10:00,
2013-03-27 13:15:00,64.4,29.7,28.56,South,180,20.0,24.0,27,0.00,,,0.00,meteohub,2013-03-27 18:15:00,
2013-03-27 13:20:00,64.9,31.1,28.56,South,180,17.0,27.0,28,0.00,,,0.00,meteohub,2013-03-27 18:20:00,
2013-03-27 13:25:00,65.5,29.7,28.56,SE,135,20.0,27.0,26,0.00,,,0.00,meteohub,2013-03-27 18:25:00,
2013-03-27 13:30:00,66.0,31.1,28.56,South,180,21.0,23.0,27,0.00,,,0.00,meteohub,2013-03-27 18:30:00,
2013-03-27 13:36:00,66.7,29.8,28.55,South,180,19.0,23.0,25,0.00,,,0.00,meteohub,2013-03-27 18:36:00,
2013-03-27 13:41:00,67.1,30.0,28.55,SSE,158,21.0,23.0,25,0.00,,,0.00,meteohub,2013-03-27 18:41:00,
2013-03-27 13:46:00,67.3,31.3,28.54,SW,225,18.0,21.0,26,0.00,,,0.00,meteohub,2013-03-27 18:46:00,
2013-03-27 13:51:00,67.6,32.5,28.54,South,180,15.0,21.0,27,0.00,,,0.00,meteohub,2013-03-27 18:51:00,
2013-03-27 13:56:00,68.2,32.9,28.54,SE,135,9.0,21.0,27,0.00,,,0.00,meteohub,2013-03-27 18:56:00,
2013-03-27 14:01:00,68.2,31.1,28.54,South,180,17.0,21.0,25,0.00,,,0.00,meteohub,2013-03-27 19:01:00,
2013-03-27 14:06:00,68.4,32.2,28.53,SW,225,21.0,25.0,26,0.00,,,0.00,meteohub,2013-03-27 19:06:00,
2013-03-27 14:11:00,68.9,32.5,28.53,South,180,13.0,25.0,26,0.00,,,0.00,meteohub,2013-03-27 19:11:00,
2013-03-27 14:17:00,69.4,32.0,28.53,South,180,19.0,22.0,25,0.00,,,0.00,meteohub,2013-03-27 19:17:00,
2013-03-27 14:22:00,69.3,32.9,28.53,East,90,21.0,22.0,26,0.00,,,0.00,meteohub,2013-03-27 19:22:00,
2013-03-27 14:27:00,69.8,33.4,28.53,South,180,17.0,22.0,26,0.00,,,0.00,meteohub,2013-03-27 19:27:00,
2013-03-27 14:32:00,69.8,33.4,28.53,South,180,19.0,22.0,26,0.00,,,0.00,meteohub,2013-03-27 19:32:00,
2013-03-27 14:37:00,70.0,32.5,28.52,SSW,203,11.0,21.0,25,0.00,,,0.00,meteohub,2013-03-27 19:37:00,
2013-03-27 14:42:00,70.9,33.3,28.52,SW,225,18.0,21.0,25,0.00,,,0.00,meteohub,2013-03-27 19:42:00,
2013-03-27 14:47:00,70.7,32.2,28.52,ESE,113,11.0,23.0,24,0.00,,,0.00,meteohub,2013-03-27 19:47:00,
2013-03-27 14:52:00,71.4,31.6,28.52,South,180,21.0,23.0,23,0.00,,,0.00,meteohub,2013-03-27 19:52:00,
2013-03-27 14:57:00,71.8,32.0,28.51,South,180,16.0,23.0,23,0.00,,,0.00,meteohub,2013-03-27 19:57:00,
2013-03-27 15:02:00,72.0,32.2,28.51,WNW,293,14.0,24.0,23,0.00,,,0.00,meteohub,2013-03-27 20:02:00,
2013-03-27 15:07:00,72.5,31.5,28.51,SE,135,17.0,24.0,22,0.00,,,0.00,meteohub,2013-03-27 20:07:00,
2013-03-27 15:12:00,72.3,32.4,28.51,South,180,15.0,24.0,23,0.00,,,0.00,meteohub,2013-03-27 20:12:00,
2013-03-27 15:17:00,72.7,32.7,28.51,South,180,19.0,22.0,23,0.00,,,0.00,meteohub,2013-03-27 20:17:00,
2013-03-27 15:22:00,72.9,31.8,28.50,South,180,17.0,22.0,22,0.00,,,0.00,meteohub,2013-03-27 20:22:00,
2013-03-27 15:27:00,72.9,31.8,28.49,South,180,13.0,25.0,22,0.00,,,0.00,meteohub,2013-03-27 20:27:00,
2013-03-27 15:32:00,73.2,30.9,28.50,SE,135,13.0,25.0,21,0.00,,,0.00,meteohub,2013-03-27 20:32:00,
2013-03-27 15:37:00,73.6,31.3,28.49,SE,135,17.0,22.0,21,0.00,,,0.00,meteohub,2013-03-27 20:37:00,
2013-03-27 15:43:00,73.6,32.4,28.49,SE,135,14.0,22.0,22,0.00,,,0.00,meteohub,2013-03-27 20:43:00,
2013-03-27 15:48:00,73.8,31.5,28.48,South,180,12.0,20.0,21,0.00,,,0.00,meteohub,2013-03-27 20:48:00,
2013-03-27 15:53:00,74.5,32.0,28.48,South,180,15.0,18.0,21,0.00,,,0.00,meteohub,2013-03-27 20:53:00,
2013-03-27 15:58:00,74.5,30.7,28.48,South,180,23.0,23.0,20,0.00,,,0.00,meteohub,2013-03-27 20:58:00,
2013-03-27 16:03:00,74.3,30.6,28.48,South,180,16.0,23.0,20,0.00,,,0.00,meteohub,2013-03-27 21:03:00,
2013-03-27 16:08:00,75.0,30.0,28.48,SE,135,16.0,23.0,19,0.00,,,0.00,meteohub,2013-03-27 21:08:00,
2013-03-27 16:13:00,75.6,30.4,28.48,South,180,16.0,23.0,19,0.00,,,0.00,meteohub,2013-03-27 21:13:00,
2013-03-27 16:18:00,75.7,30.6,28.47,South,180,15.0,17.0,19,0.00,,,0.00,meteohub,2013-03-27 21:18:00,
2013-03-27 16:23:00,75.7,30.6,28.47,SE,135,11.0,17.0,19,0.00,,,0.00,meteohub,2013-03-27 21:23:00,
2013-03-27 16:28:00,75.7,30.6,28.48,South,180,11.0,20.0,19,0.00,,,0.00,meteohub,2013-03-27 21:28:00,
2013-03-27 16:33:00,76.1,29.5,28.48,South,180,16.0,20.0,18,0.00,,,0.00,meteohub,2013-03-27 21:33:00,
2013-03-27 16:38:00,76.5,29.8,28.48,SE,135,21.0,21.0,18,0.00,,,0.00,meteohub,2013-03-27 21:38:00,
2013-03-27 16:43:00,76.1,29.5,28.48,South,180,15.0,21.0,18,0.00,,,0.00,meteohub,2013-03-27 21:43:00,
2013-03-27 16:48:00,76.5,29.8,28.47,SSE,158,17.0,21.0,18,0.00,,,0.00,meteohub,2013-03-27 21:48:00,
2013-03-27 16:53:00,76.3,29.7,28.47,SE,135,8.0,21.0,18,0.00,,,0.00,meteohub,2013-03-27 21:53:00,
2013-03-27 16:58:00,76.6,30.0,28.46,SE,135,16.0,18.0,18,0.00,,,0.00,meteohub,2013-03-27 21:58:00,
2013-03-27 17:03:00,76.3,29.7,28.46,South,180,14.0,17.0,18,0.00,,,0.00,meteohub,2013-03-27 22:03:00,
2013-03-27 17:08:00,76.3,29.7,28.46,East,90,13.0,23.0,18,0.00,,,0.00,meteohub,2013-03-27 22:08:00,
2013-03-27 17:13:00,76.6,30.0,28.46,SE,135,12.0,23.0,18,0.00,,,0.00,meteohub,2013-03-27 22:13:00,
2013-03-27 17:18:00,77.0,28.8,28.46,South,180,14.0,23.0,17,0.00,,,0.00,meteohub,2013-03-27 22:18:00,
2013-03-27 17:23:00,76.5,29.8,28.46,East,90,12.0,18.0,18,0.00,,,0.00,meteohub,2013-03-27 22:23:00,
2013-03-27 17:28:00,76.5,28.4,28.46,South,180,15.0,17.0,17,0.00,,,0.00,meteohub,2013-03-27 22:28:00,
2013-03-27 17:33:00,77.0,28.8,28.45,South,180,15.0,17.0,17,0.00,,,0.00,meteohub,2013-03-27 22:33:00,
2013-03-27 17:38:00,76.8,28.8,28.46,SE,135,11.0,17.0,17,0.00,,,0.00,meteohub,2013-03-27 22:38:00,
2013-03-27 17:43:00,76.3,28.2,28.46,SE,135,10.0,17.0,17,0.00,,,0.00,meteohub,2013-03-27 22:43:00,
2013-03-27 17:48:00,76.5,28.4,28.45,SE,135,13.0,17.0,17,0.00,,,0.00,meteohub,2013-03-27 22:48:00,
2013-03-27 17:53:00,76.3,28.2,28.45,East,90,9.0,13.0,17,0.00,,,0.00,meteohub,2013-03-27 22:53:00,
2013-03-27 17:58:00,76.3,28.2,28.45,SW,225,8.0,13.0,17,0.00,,,0.00,meteohub,2013-03-27 22:58:00,
2013-03-27 18:03:00,76.1,28.0,28.45,South,180,8.0,13.0,17,0.00,,,0.00,meteohub,2013-03-27 23:03:00,
2013-03-27 18:09:00,76.3,29.7,28.45,SE,135,8.0,12.0,18,0.00,,,0.00,meteohub,2013-03-27 23:09:00,
2013-03-27 18:13:00,76.6,28.6,28.45,SE,135,6.0,12.0,17,0.00,,,0.00,meteohub,2013-03-27 23:13:00,
2013-03-27 18:19:00,76.8,30.0,28.46,South,180,11.0,11.0,18,0.00,,,0.00,meteohub,2013-03-27 23:19:00,
2013-03-27 18:24:00,76.6,28.6,28.46,SE,135,6.0,11.0,17,0.00,,,0.00,meteohub,2013-03-27 23:24:00,
2013-03-27 18:29:00,76.6,30.0,28.46,South,180,6.0,13.0,18,0.00,,,0.00,meteohub,2013-03-27 23:29:00,
2013-03-27 18:34:00,76.5,31.1,28.46,East,90,9.0,15.0,19,0.00,,,0.00,meteohub,2013-03-27 23:34:00,
2013-03-27 18:39:00,76.3,30.9,28.46,South,180,8.0,15.0,19,0.00,,,0.00,meteohub,2013-03-27 23:39:00,
2013-03-27 18:44:00,76.1,30.9,28.46,SE,135,6.0,15.0,19,0.00,,,0.00,meteohub,2013-03-27 23:44:00,
2013-03-27 18:49:00,75.7,31.8,28.46,SE,135,8.0,9.0,20,0.00,,,0.00,meteohub,2013-03-27 23:49:00,
2013-03-27 18:54:00,75.4,31.5,28.46,SE,135,9.0,9.0,20,0.00,,,0.00,meteohub,2013-03-27 23:54:00,
2013-03-27 18:59:00,75.4,31.5,28.46,SE,135,5.0,9.0,20,0.00,,,0.00,meteohub,2013-03-27 23:59:00,
2013-03-27 19:04:00,75.2,32.5,28.47,SSE,158,4.0,9.0,21,0.00,,,0.00,meteohub,2013-03-28 00:04:00,
2013-03-27 19:09:00,75.0,33.6,28.46,SE,135,6.0,9.0,22,0.00,,,0.00,meteohub,2013-03-28 00:09:00,
2013-03-27 19:14:00,74.7,34.3,28.47,ESE,113,8.0,9.0,23,0.00,,,0.00,meteohub,2013-03-28 00:14:00,
2013-03-27 19:19:00,74.1,34.0,28.47,ESE,113,5.0,8.0,23,0.00,,,0.00,meteohub,2013-03-28 00:19:00,
2013-03-27 19:24:00,73.6,34.5,28.47,SE,135,5.0,8.0,24,0.00,,,0.00,meteohub,2013-03-28 00:24:00,
2013-03-27 19:29:00,73.0,35.1,28.47,East,90,6.0,8.0,25,0.00,,,0.00,meteohub,2013-03-28 00:29:00,
2013-03-27 19:34:00,72.5,36.7,28.47,East,90,5.0,8.0,27,0.00,,,0.00,meteohub,2013-03-28 00:34:00,
2013-03-27 19:39:00,71.8,36.0,28.47,East,90,5.0,9.0,27,0.00,,,0.00,meteohub,2013-03-28 00:39:00,
2013-03-27 19:44:00,71.4,37.6,28.47,East,90,6.0,9.0,29,0.00,,,0.00,meteohub,2013-03-28 00:44:00,
2013-03-27 19:49:00,71.1,37.2,28.47,East,90,6.0,8.0,29,0.00,,,0.00,meteohub,2013-03-28 00:49:00,
2013-03-27 19:54:00,70.9,37.9,28.47,East,90,6.0,9.0,30,0.00,,,0.00,meteohub,2013-03-28 00:54:00,
2013-03-27 19:59:00,70.2,37.2,28.47,East,90,6.0,9.0,30,0.00,,,0.00,meteohub,2013-03-28 00:59:00,
2013-03-27 20:04:00,69.8,37.8,28.47,East,90,5.0,8.0,31,0.00,,,0.00,meteohub,2013-03-28 01:04:00,
2013-03-27 20:09:00,69.3,38.1,28.47,East,90,4.0,7.0,32,0.00,,,0.00,meteohub,2013-03-28 01:09:00,
2013-03-27 20:14:00,68.7,38.5,28.48,East,90,4.0,7.0,33,0.00,,,0.00,meteohub,2013-03-28 01:14:00,
2013-03-27 20:19:00,68.0,38.7,28.48,East,90,9.0,9.0,34,0.00,,,0.00,meteohub,2013-03-28 01:19:00,
2013-03-27 20:24:00,67.8,39.2,28.48,East,90,6.0,9.0,35,0.00,,,0.00,meteohub,2013-03-28 01:24:00,
2013-03-27 20:29:00,68.0,39.4,28.48,East,90,11.0,11.0,35,0.00,,,0.00,meteohub,2013-03-28 01:29:00,
2013-03-27 20:34:00,67.5,39.6,28.49,East,90,14.0,14.0,36,0.00,,,0.00,meteohub,2013-03-28 01:34:00,
2013-03-27 20:39:00,67.1,39.9,28.49,ENE,68,7.0,14.0,37,0.00,,,0.00,meteohub,2013-03-28 01:39:00,
2013-03-27 20:44:00,66.9,39.7,28.49,East,90,11.0,14.0,37,0.00,,,0.00,meteohub,2013-03-28 01:44:00,
2013-03-27 20:49:00,66.6,39.6,28.49,SE,135,8.0,14.0,37,0.00,,,0.00,meteohub,2013-03-28 01:49:00,
2013-03-27 20:54:00,66.4,39.4,28.49,East,90,11.0,12.0,37,0.00,,,0.00,meteohub,2013-03-28 01:54:00,
2013-03-27 20:59:00,66.4,39.4,28.49,East,90,10.0,12.0,37,0.00,,,0.00,meteohub,2013-03-28 01:59:00,
2013-03-27 21:04:00,65.5,39.2,28.50,East,90,9.0,12.0,38,0.00,,,0.00,meteohub,2013-03-28 02:04:00,
2013-03-27 21:10:00,65.1,39.6,28.50,East,90,10.0,12.0,39,0.00,,,0.00,meteohub,2013-03-28 02:10:00,
2013-03-27 21:15:00,64.6,40.3,28.50,East,90,10.0,11.0,41,0.00,,,0.00,meteohub,2013-03-28 02:15:00,
2013-03-27 21:20:00,63.7,40.1,28.50,East,90,10.0,11.0,42,0.00,,,0.00,meteohub,2013-03-28 02:20:00,
2013-03-27 21:25:00,63.1,39.7,28.51,SE,135,11.0,11.0,42,0.00,,,0.00,meteohub,2013-03-28 02:25:00,
2013-03-27 21:30:00,63.5,39.9,28.50,East,90,12.0,12.0,42,0.00,,,0.00,meteohub,2013-03-28 02:30:00,
2013-03-27 21:35:00,63.1,39.7,28.51,SE,135,12.0,12.0,42,0.00,,,0.00,meteohub,2013-03-28 02:35:00,
2013-03-27 21:40:00,63.1,39.7,28.51,East,90,11.0,13.0,42,0.00,,,0.00,meteohub,2013-03-28 02:40:00,
2013-03-27 21:45:00,63.0,40.1,28.51,East,90,12.0,13.0,43,0.00,,,0.00,meteohub,2013-03-28 02:45:00,
2013-03-27 21:50:00,63.0,39.6,28.51,East,90,15.0,15.0,42,0.00,,,0.00,meteohub,2013-03-28 02:50:00,
2013-03-27 21:55:00,63.3,39.9,28.51,ENE,68,14.0,15.0,42,0.00,,,0.00,meteohub,2013-03-28 02:55:00,
2013-03-27 22:00:00,63.1,39.7,28.51,SE,135,12.0,15.0,42,0.00,,,0.00,meteohub,2013-03-28 03:00:00,
2013-03-27 22:05:00,62.8,39.9,28.51,East,90,11.0,15.0,43,0.00,,,0.00,meteohub,2013-03-28 03:05:00,
2013-03-27 22:10:00,62.4,39.6,28.51,SE,135,15.0,17.0,43,0.00,,,0.00,meteohub,2013-03-28 03:10:00,
2013-03-27 22:15:00,62.1,39.9,28.51,East,90,14.0,17.0,44,0.00,,,0.00,meteohub,2013-03-28 03:15:00,
2013-03-27 22:20:00,61.9,40.3,28.52,East,90,15.0,17.0,45,0.00,,,0.00,meteohub,2013-03-28 03:20:00,
2013-03-27 22:25:00,61.7,40.1,28.51,East,90,14.0,15.0,45,0.00,,,0.00,meteohub,2013-03-28 03:25:00,
2013-03-27 22:30:00,61.7,40.1,28.52,East,90,11.0,15.0,45,0.00,,,0.00,meteohub,2013-03-28 03:30:00,
2013-03-27 22:35:00,61.9,40.3,28.52,East,90,10.0,16.0,45,0.00,,,0.00,meteohub,2013-03-28 03:35:00,
2013-03-27 22:40:00,61.2,39.7,28.52,East,90,11.0,16.0,45,0.00,,,0.00,meteohub,2013-03-28 03:40:00,
2013-03-27 22:45:00,61.3,39.7,28.52,SE,135,11.0,16.0,45,0.00,,,0.00,meteohub,2013-03-28 03:45:00,
2013-03-27 22:50:00,61.2,39.7,28.52,SE,135,14.0,16.0,45,0.00,,,0.00,meteohub,2013-03-28 03:50:00,
2013-03-27 22:55:00,61.0,39.6,28.53,East,90,13.0,16.0,45,0.00,,,0.00,meteohub,2013-03-28 03:55:00,
2013-03-27 23:00:00,61.0,40.1,28.53,SE,135,11.0,16.0,46,0.00,,,0.00,meteohub,2013-03-28 04:00:00,
2013-03-27 23:05:00,60.8,39.9,28.53,East,90,10.0,16.0,46,0.00,,,0.00,meteohub,2013-03-28 04:05:00,
2013-03-27 23:10:00,60.6,40.3,28.53,East,90,10.0,15.0,47,0.00,,,0.00,meteohub,2013-03-28 04:10:00,
2013-03-27 23:15:00,60.6,40.3,28.53,SE,135,11.0,15.0,47,0.00,,,0.00,meteohub,2013-03-28 04:15:00,
2013-03-27 23:20:00,60.8,41.0,28.53,SE,135,10.0,15.0,48,0.00,,,0.00,meteohub,2013-03-28 04:20:00,
2013-03-27 23:25:00,60.6,41.4,28.53,ESE,113,13.0,15.0,49,0.00,,,0.00,meteohub,2013-03-28 04:25:00,
2013-03-27 23:30:00,60.8,41.5,28.53,East,90,12.0,14.0,49,0.00,,,0.00,meteohub,2013-03-28 04:30:00,
2013-03-27 23:35:00,60.8,41.5,28.53,East,90,12.0,15.0,49,0.00,,,0.00,meteohub,2013-03-28 04:35:00,
2013-03-27 23:40:00,60.8,41.5,28.53,East,90,11.0,15.0,49,0.00,,,0.00,meteohub,2013-03-28 04:40:00,
2013-03-27 23:45:00,61.0,42.3,28.53,SE,135,11.0,15.0,50,0.00,,,0.00,meteohub,2013-03-28 04:45:00,
2013-03-27 23:50:00,60.8,42.1,28.53,East,90,12.0,15.0,50,0.00,,,0.00,meteohub,2013-03-28 04:50:00,
2013-03-27 23:55:00,60.8,42.1,28.53,SE,135,11.0,16.0,50,0.00,,,0.00,meteohub,2013-03-28 04:55:00,